sensor_id;sensor_type;location;lat;lon;timestamp;pressure;altitude;pressure_sealevel;temperature;humidity
12879;BME280;20617;49.476;10.986;2023-05-08T00:01:30;98586.09;;;15.15;100.00
12879;BME280;20617;49.476;10.986;2023-05-08T00:03:35;98582.75;;;15.12;100.00
12879;BME280;20617;49.476;10.986;2023-05-08T00:05:40;98592.50;;;15.10;100.00
12879;BME280;20617;49.476;10.986;2023-05-08T00:07:46;98587.44;;;15.07;100.00
12879;BME280;20617;49.476;10.986;2023-05-08T00:09:52;98583.78;;;15.09;100.00
12879;BME280;20617;49.476;10.986;2023-05-08T00:11:57;98589.00;;;15.09;100.00
12879;BME280;20617;49.476;10.986;2023-05-08T00:14:03;98579.63;;;15.05;100.00
12879;BME280;20617;49.476;10.986;2023-05-08T00:16:10;98583.94;;;15.06;100.00
12879;BME280;20617;49.476;10.986;2023-05-08T00:18:15;98578.88;;;15.03;100.00
12879;BME280;20617;49.476;10.986;2023-05-08T00:20:20;98582.34;;;15.04;100.00
12879;BME280;20617;49.476;10.986;2023-05-08T00:22:25;98589.88;;;14.94;100.00
12879;BME280;20617;49.476;10.986;2023-05-08T00:24:30;98590.53;;;14.98;100.00
12879;BME280;20617;49.476;10.986;2023-05-08T00:26:35;98582.59;;;14.99;100.00
12879;BME280;20617;49.476;10.986;2023-05-08T00:28:40;98583.44;;;15.00;100.00
12879;BME280;20617;49.476;10.986;2023-05-08T00:30:46;98583.53;;;14.98;100.00
12879;BME280;20617;49.476;10.986;2023-05-08T00:32:53;98582.00;;;14.94;100.00
12879;BME280;20617;49.476;10.986;2023-05-08T00:34:58;98584.78;;;14.91;100.00
12879;BME280;20617;49.476;10.986;2023-05-08T00:37:04;98577.75;;;14.91;100.00
12879;BME280;20617;49.476;10.986;2023-05-08T00:39:09;98572.09;;;14.83;100.00
12879;BME280;20617;49.476;10.986;2023-05-08T00:41:14;98576.66;;;14.80;100.00
12879;BME280;20617;49.476;10.986;2023-05-08T00:43:21;98574.53;;;14.70;100.00
12879;BME280;20617;49.476;10.986;2023-05-08T00:45:33;98578.78;;;14.73;100.00
12879;BME280;20617;49.476;10.986;2023-05-08T00:47:38;98586.03;;;14.68;100.00
12879;BME280;20617;49.476;10.986;2023-05-08T00:49:46;98592.44;;;14.62;100.00
12879;BME280;20617;49.476;10.986;2023-05-08T00:51:53;98592.28;;;14.65;100.00
12879;BME280;20617;49.476;10.986;2023-05-08T00:53:59;98588.75;;;14.66;100.00
12879;BME280;20617;49.476;10.986;2023-05-08T00:56:04;98599.13;;;14.68;100.00
12879;BME280;20617;49.476;10.986;2023-05-08T00:58:10;98595.59;;;14.69;100.00
12879;BME280;20617;49.476;10.986;2023-05-08T01:00:17;98595.50;;;14.70;100.00
12879;BME280;20617;49.476;10.986;2023-05-08T01:02:22;98595.84;;;14.64;100.00
12879;BME280;20617;49.476;10.986;2023-05-08T01:04:29;98602.69;;;14.67;100.00
12879;BME280;20617;49.476;10.986;2023-05-08T01:06:36;98601.69;;;14.69;100.00
12879;BME280;20617;49.476;10.986;2023-05-08T01:08:43;98604.81;;;14.76;100.00
12879;BME280;20617;49.476;10.986;2023-05-08T01:10:57;98604.97;;;14.73;100.00
12879;BME280;20617;49.476;10.986;2023-05-08T01:13:13;98600.56;;;14.74;100.00
12879;BME280;20617;49.476;10.986;2023-05-08T01:15:25;98603.53;;;14.67;100.00
12879;BME280;20617;49.476;10.986;2023-05-08T01:17:39;98607.84;;;14.68;100.00
12879;BME280;20617;49.476;10.986;2023-05-08T01:19:56;98615.19;;;14.62;100.00
12879;BME280;20617;49.476;10.986;2023-05-08T01:22:13;98613.72;;;14.56;100.00
12879;BME280;20617;49.476;10.986;2023-05-08T01:24:41;98618.41;;;14.49;100.00
12879;BME280;20617;49.476;10.986;2023-05-08T01:27:17;98625.50;;;14.47;100.00
12879;BME280;20617;49.476;10.986;2023-05-08T01:29:47;98627.19;;;14.48;100.00
12879;BME280;20617;49.476;10.986;2023-05-08T01:32:16;98617.34;;;14.54;100.00
12879;BME280;20617;49.476;10.986;2023-05-08T01:34:26;98613.06;;;14.53;100.00
12879;BME280;20617;49.476;10.986;2023-05-08T01:36:40;98628.06;;;14.49;100.00
12879;BME280;20617;49.476;10.986;2023-05-08T01:38:54;98615.41;;;14.57;100.00
12879;BME280;20617;49.476;10.986;2023-05-08T01:41:07;98620.41;;;14.62;100.00
12879;BME280;20617;49.476;10.986;2023-05-08T01:43:24;98623.13;;;14.60;100.00
12879;BME280;20617;49.476;10.986;2023-05-08T01:45:33;98622.53;;;14.55;100.00
12879;BME280;20617;49.476;10.986;2023-05-08T01:47:49;98622.69;;;14.52;100.00
12879;BME280;20617;49.476;10.986;2023-05-08T01:49:59;98632.59;;;14.45;100.00
12879;BME280;20617;49.476;10.986;2023-05-08T01:52:12;98632.69;;;14.44;100.00
12879;BME280;20617;49.476;10.986;2023-05-08T01:54:22;98628.38;;;14.43;100.00
12879;BME280;20617;49.476;10.986;2023-05-08T01:56:29;98631.53;;;14.49;100.00
12879;BME280;20617;49.476;10.986;2023-05-08T01:58:36;98632.31;;;14.52;100.00
12879;BME280;20617;49.476;10.986;2023-05-08T02:00:41;98635.47;;;14.41;100.00
12879;BME280;20617;49.476;10.986;2023-05-08T02:02:51;98632.75;;;14.42;100.00
12879;BME280;20617;49.476;10.986;2023-05-08T02:05:02;98639.13;;;14.37;100.00
12879;BME280;20617;49.476;10.986;2023-05-08T02:07:08;98629.97;;;14.28;100.00
12879;BME280;20617;49.476;10.986;2023-05-08T02:09:13;98642.50;;;14.23;100.00
12879;BME280;20617;49.476;10.986;2023-05-08T02:11:19;98645.31;;;14.18;100.00
12879;BME280;20617;49.476;10.986;2023-05-08T02:13:28;98644.34;;;14.21;100.00
12879;BME280;20617;49.476;10.986;2023-05-08T02:15:35;98641.78;;;14.19;100.00
12879;BME280;20617;49.476;10.986;2023-05-08T02:17:42;98641.78;;;14.19;100.00
12879;BME280;20617;49.476;10.986;2023-05-08T02:19:50;98644.34;;;14.21;100.00
12879;BME280;20617;49.476;10.986;2023-05-08T02:21:57;98650.25;;;14.24;100.00
12879;BME280;20617;49.476;10.986;2023-05-08T02:24:03;98645.47;;;14.15;100.00
12879;BME280;20617;49.476;10.986;2023-05-08T02:26:10;98639.47;;;14.13;100.00
12879;BME280;20617;49.476;10.986;2023-05-08T02:28:18;98642.09;;;14.13;100.00
12879;BME280;20617;49.476;10.986;2023-05-08T02:30:25;98646.31;;;14.16;100.00
12879;BME280;20617;49.476;10.986;2023-05-08T02:32:31;98641.78;;;14.19;100.00
12879;BME280;20617;49.476;10.986;2023-05-08T02:34:37;98641.88;;;14.18;100.00
12879;BME280;20617;49.476;10.986;2023-05-08T02:37:04;98647.94;;;14.18;100.00
12879;BME280;20617;49.476;10.986;2023-05-08T02:39:10;98648.56;;;14.23;100.00
12879;BME280;20617;49.476;10.986;2023-05-08T02:41:19;98646.16;;;14.19;100.00
12879;BME280;20617;49.476;10.986;2023-05-08T02:43:25;98647.31;;;14.13;100.00
12879;BME280;20617;49.476;10.986;2023-05-08T02:45:33;98650.25;;;14.07;100.00
12879;BME280;20617;49.476;10.986;2023-05-08T02:47:46;98647.88;;;14.02;100.00
12879;BME280;20617;49.476;10.986;2023-05-08T02:50:01;98648.09;;;13.98;100.00
12879;BME280;20617;49.476;10.986;2023-05-08T02:52:12;98660.50;;;13.94;100.00
12879;BME280;20617;49.476;10.986;2023-05-08T02:54:26;98657.34;;;13.88;100.00
12879;BME280;20617;49.476;10.986;2023-05-08T02:56:42;98656.56;;;13.86;100.00
12879;BME280;20617;49.476;10.986;2023-05-08T02:58:55;98653.84;;;13.87;100.00
12879;BME280;20617;49.476;10.986;2023-05-08T03:01:07;98658.72;;;13.95;100.00
12879;BME280;20617;49.476;10.986;2023-05-08T03:03:19;98657.03;;;13.94;100.00
12879;BME280;20617;49.476;10.986;2023-05-08T03:05:29;98659.50;;;13.97;100.00
12879;BME280;20617;49.476;10.986;2023-05-08T03:07:39;98662.72;;;14.02;100.00
12879;BME280;20617;49.476;10.986;2023-05-08T03:09:49;98662.72;;;14.02;100.00
12879;BME280;20617;49.476;10.986;2023-05-08T03:11:59;98669.50;;;14.06;100.00
12879;BME280;20617;49.476;10.986;2023-05-08T03:14:08;98661.66;;;14.06;100.00
12879;BME280;20617;49.476;10.986;2023-05-08T03:16:17;98660.56;;;14.10;100.00
12879;BME280;20617;49.476;10.986;2023-05-08T03:18:29;98660.41;;;14.13;100.00
12879;BME280;20617;49.476;10.986;2023-05-08T03:20:42;98652.72;;;14.10;100.00
12879;BME280;20617;49.476;10.986;2023-05-08T03:22:52;98655.59;;;14.06;100.00
12879;BME280;20617;49.476;10.986;2023-05-08T03:25:00;98650.03;;;13.94;100.00
12879;BME280;20617;49.476;10.986;2023-05-08T03:27:08;98661.50;;;13.92;100.00
12879;BME280;20617;49.476;10.986;2023-05-08T03:29:15;98664.88;;;13.94;100.00
12879;BME280;20617;49.476;10.986;2023-05-08T03:31:23;98658.72;;;13.95;100.00
12879;BME280;20617;49.476;10.986;2023-05-08T03:33:29;98664.94;;;13.92;100.00
12879;BME280;20617;49.476;10.986;2023-05-08T03:35:36;98666.03;;;13.88;100.00
12879;BME280;20617;49.476;10.986;2023-05-08T03:37:43;98661.69;;;13.87;100.00
12879;BME280;20617;49.476;10.986;2023-05-08T03:39:52;98664.56;;;13.82;100.00
12879;BME280;20617;49.476;10.986;2023-05-08T03:41:58;98663.16;;;13.75;100.00
12879;BME280;20617;49.476;10.986;2023-05-08T03:44:04;98662.47;;;13.72;100.00
12879;BME280;20617;49.476;10.986;2023-05-08T03:46:10;98666.31;;;13.65;100.00
12879;BME280;20617;49.476;10.986;2023-05-08T03:48:17;98667.59;;;13.56;100.00
12879;BME280;20617;49.476;10.986;2023-05-08T03:50:23;98665.19;;;13.51;100.00
12879;BME280;20617;49.476;10.986;2023-05-08T03:52:29;98673.19;;;13.48;100.00
12879;BME280;20617;49.476;10.986;2023-05-08T03:54:35;98666.25;;;13.47;100.00
12879;BME280;20617;49.476;10.986;2023-05-08T03:56:43;98673.31;;;13.45;100.00
12879;BME280;20617;49.476;10.986;2023-05-08T03:58:53;98676.72;;;13.47;100.00
12879;BME280;20617;49.476;10.986;2023-05-08T04:01:05;98671.50;;;13.47;100.00
12879;BME280;20617;49.476;10.986;2023-05-08T04:03:21;98675.09;;;13.45;100.00
12879;BME280;20617;49.476;10.986;2023-05-08T04:05:29;98675.28;;;13.40;100.00
12879;BME280;20617;49.476;10.986;2023-05-08T04:07:41;98674.88;;;13.30;100.00
12879;BME280;20617;49.476;10.986;2023-05-08T04:09:55;98680.81;;;13.34;100.00
12879;BME280;20617;49.476;10.986;2023-05-08T04:12:10;98671.16;;;13.36;100.00
12879;BME280;20617;49.476;10.986;2023-05-08T04:14:24;98681.88;;;13.30;100.00
12879;BME280;20617;49.476;10.986;2023-05-08T04:16:36;98687.72;;;13.35;100.00
12879;BME280;20617;49.476;10.986;2023-05-08T04:18:45;98677.91;;;13.40;100.00
12879;BME280;20617;49.476;10.986;2023-05-08T04:20:53;98684.84;;;13.41;100.00
12879;BME280;20617;49.476;10.986;2023-05-08T04:23:01;98679.81;;;13.36;100.00
12879;BME280;20617;49.476;10.986;2023-05-08T04:25:08;98686.84;;;13.36;100.00
12879;BME280;20617;49.476;10.986;2023-05-08T04:27:18;98691.13;;;13.37;100.00
12879;BME280;20617;49.476;10.986;2023-05-08T04:29:24;98691.38;;;13.32;100.00
12879;BME280;20617;49.476;10.986;2023-05-08T04:31:29;98692.13;;;13.34;100.00
12879;BME280;20617;49.476;10.986;2023-05-08T04:33:35;98686.59;;;13.41;100.00
12879;BME280;20617;49.476;10.986;2023-05-08T04:35:40;98690.94;;;13.42;100.00
12879;BME280;20617;49.476;10.986;2023-05-08T04:37:47;98685.63;;;13.43;100.00
12879;BME280;20617;49.476;10.986;2023-05-08T04:39:52;98686.53;;;13.42;100.00
12879;BME280;20617;49.476;10.986;2023-05-08T04:41:58;98692.63;;;13.43;100.00
12879;BME280;20617;49.476;10.986;2023-05-08T04:44:10;98696.22;;;13.40;100.00
12879;BME280;20617;49.476;10.986;2023-05-08T04:46:16;98690.94;;;13.42;100.00
12879;BME280;20617;49.476;10.986;2023-05-08T04:48:20;98700.88;;;13.52;100.00
12879;BME280;20617;49.476;10.986;2023-05-08T04:50:25;98700.81;;;13.54;100.00
12879;BME280;20617;49.476;10.986;2023-05-08T04:52:30;98697.50;;;13.50;100.00
12879;BME280;20617;49.476;10.986;2023-05-08T04:54:36;98701.00;;;13.49;100.00
12879;BME280;20617;49.476;10.986;2023-05-08T04:56:41;98705.41;;;13.49;100.00
12879;BME280;20617;49.476;10.986;2023-05-08T04:58:46;98709.16;;;13.43;100.00
12879;BME280;20617;49.476;10.986;2023-05-08T05:00:55;98714.59;;;13.39;100.00
12879;BME280;20617;49.476;10.986;2023-05-08T05:03:01;98714.91;;;13.32;100.00
12879;BME280;20617;49.476;10.986;2023-05-08T05:05:07;98715.38;;;13.41;100.00
12879;BME280;20617;49.476;10.986;2023-05-08T05:07:13;98724.56;;;13.49;100.00
12879;BME280;20617;49.476;10.986;2023-05-08T05:09:21;98720.75;;;13.56;100.00
12879;BME280;20617;49.476;10.986;2023-05-08T05:11:27;98719.63;;;13.62;100.00
12879;BME280;20617;49.476;10.986;2023-05-08T05:13:32;98717.84;;;13.63;100.00
12879;BME280;20617;49.476;10.986;2023-05-08T05:15:39;98717.75;;;13.64;100.00
12879;BME280;20617;49.476;10.986;2023-05-08T05:17:49;98707.59;;;13.58;100.00
12879;BME280;20617;49.476;10.986;2023-05-08T05:19:54;98710.53;;;13.69;100.00
12879;BME280;20617;49.476;10.986;2023-05-08T05:21:59;98714.94;;;13.69;100.00
12879;BME280;20617;49.476;10.986;2023-05-08T05:24:06;98723.78;;;13.66;100.00
12879;BME280;20617;49.476;10.986;2023-05-08T05:26:12;98711.63;;;13.65;100.00
12879;BME280;20617;49.476;10.986;2023-05-08T05:28:17;98721.25;;;13.65;100.00
12879;BME280;20617;49.476;10.986;2023-05-08T05:30:22;98715.63;;;13.72;100.00
12879;BME280;20617;49.476;10.986;2023-05-08T05:32:27;98719.22;;;13.70;100.00
12879;BME280;20617;49.476;10.986;2023-05-08T05:34:35;98712.13;;;13.73;100.00
12879;BME280;20617;49.476;10.986;2023-05-08T05:36:43;98709.25;;;13.78;100.00
12879;BME280;20617;49.476;10.986;2023-05-08T05:38:48;98713.84;;;13.92;100.00
12879;BME280;20617;49.476;10.986;2023-05-08T05:40:53;98714.94;;;14.05;100.00
12879;BME280;20617;49.476;10.986;2023-05-08T05:42:58;98718.78;;;14.15;100.00
12879;BME280;20617;49.476;10.986;2023-05-08T05:45:03;98723.00;;;14.00;100.00
12879;BME280;20617;49.476;10.986;2023-05-08T05:47:09;98720.06;;;13.89;100.00
12879;BME280;20617;49.476;10.986;2023-05-08T05:49:15;98728.41;;;13.97;100.00
12879;BME280;20617;49.476;10.986;2023-05-08T05:51:23;98724.69;;;14.01;100.00
12879;BME280;20617;49.476;10.986;2023-05-08T05:53:29;98729.94;;;14.01;100.00
12879;BME280;20617;49.476;10.986;2023-05-08T05:55:34;98732.34;;;14.06;100.00
12879;BME280;20617;49.476;10.986;2023-05-08T05:57:41;98734.41;;;13.99;100.00
12879;BME280;20617;49.476;10.986;2023-05-08T05:59:47;98730.22;;;13.95;100.00
12879;BME280;20617;49.476;10.986;2023-05-08T06:01:54;98734.31;;;14.01;100.00
12879;BME280;20617;49.476;10.986;2023-05-08T06:03:59;98739.84;;;14.14;100.00
12879;BME280;20617;49.476;10.986;2023-05-08T06:06:06;98745.34;;;14.08;100.00
12879;BME280;20617;49.476;10.986;2023-05-08T06:08:13;98736.47;;;13.93;100.00
12879;BME280;20617;49.476;10.986;2023-05-08T06:10:20;98741.94;;;13.88;100.00
12879;BME280;20617;49.476;10.986;2023-05-08T06:12:25;98735.84;;;13.88;100.00
12879;BME280;20617;49.476;10.986;2023-05-08T06:14:30;98745.44;;;13.87;100.00
12879;BME280;20617;49.476;10.986;2023-05-08T06:16:35;98743.06;;;13.82;100.00
12879;BME280;20617;49.476;10.986;2023-05-08T06:18:42;98738.16;;;13.94;100.00
12879;BME280;20617;49.476;10.986;2023-05-08T06:20:47;98739.00;;;13.94;100.00
12879;BME280;20617;49.476;10.986;2023-05-08T06:22:52;98747.34;;;14.02;100.00
12879;BME280;20617;49.476;10.986;2023-05-08T06:25:00;98741.53;;;13.96;100.00
12879;BME280;20617;49.476;10.986;2023-05-08T06:27:10;98754.47;;;13.99;100.00
12879;BME280;20617;49.476;10.986;2023-05-08T06:29:16;98750.56;;;14.08;100.00
12879;BME280;20617;49.476;10.986;2023-05-08T06:31:21;98745.13;;;14.12;100.00
12879;BME280;20617;49.476;10.986;2023-05-08T06:33:26;98743.13;;;14.17;100.00
12879;BME280;20617;49.476;10.986;2023-05-08T06:35:31;98745.31;;;14.26;100.00
12879;BME280;20617;49.476;10.986;2023-05-08T06:37:36;98749.16;;;14.37;100.00
12879;BME280;20617;49.476;10.986;2023-05-08T06:39:41;98748.56;;;14.49;100.00
12879;BME280;20617;49.476;10.986;2023-05-08T06:41:48;98756.34;;;14.68;100.00
12879;BME280;20617;49.476;10.986;2023-05-08T06:44:02;98743.03;;;14.73;100.00
12879;BME280;20617;49.476;10.986;2023-05-08T06:46:10;98749.63;;;14.80;100.00
12879;BME280;20617;49.476;10.986;2023-05-08T06:48:15;98742.28;;;14.86;100.00
12879;BME280;20617;49.476;10.986;2023-05-08T06:50:23;98748.22;;;15.07;100.00
12879;BME280;20617;49.476;10.986;2023-05-08T06:52:28;98737.84;;;15.22;100.00
12879;BME280;20617;49.476;10.986;2023-05-08T06:54:33;98741.22;;;15.24;100.00
12879;BME280;20617;49.476;10.986;2023-05-08T06:56:38;98746.34;;;15.43;100.00
12879;BME280;20617;49.476;10.986;2023-05-08T06:58:45;98746.00;;;15.65;100.00
12879;BME280;20617;49.476;10.986;2023-05-08T07:01:08;98739.16;;;15.62;100.00
12879;BME280;20617;49.476;10.986;2023-05-08T07:03:13;98732.22;;;15.45;100.00
12879;BME280;20617;49.476;10.986;2023-05-08T07:05:21;98748.78;;;15.46;100.00
12879;BME280;20617;49.476;10.986;2023-05-08T07:07:26;98741.88;;;15.60;100.00
12879;BME280;20617;49.476;10.986;2023-05-08T07:09:31;98743.00;;;15.72;100.00
12879;BME280;20617;49.476;10.986;2023-05-08T07:11:36;98739.69;;;15.84;100.00
12879;BME280;20617;49.476;10.986;2023-05-08T07:13:41;98741.47;;;15.84;100.00
12879;BME280;20617;49.476;10.986;2023-05-08T07:15:51;98743.31;;;15.98;100.00
12879;BME280;20617;49.476;10.986;2023-05-08T07:17:57;98739.50;;;16.03;100.00
12879;BME280;20617;49.476;10.986;2023-05-08T07:20:01;98739.94;;;15.96;100.00
12879;BME280;20617;49.476;10.986;2023-05-08T07:22:07;98746.38;;;15.90;100.00
12879;BME280;20617;49.476;10.986;2023-05-08T07:24:12;98744.03;;;15.86;100.00
12879;BME280;20617;49.476;10.986;2023-05-08T07:26:17;98737.31;;;15.96;100.00
12879;BME280;20617;49.476;10.986;2023-05-08T07:28:22;98744.34;;;15.95;100.00
12879;BME280;20617;49.476;10.986;2023-05-08T07:30:27;98750.00;;;15.88;100.00
12879;BME280;20617;49.476;10.986;2023-05-08T07:32:36;98740.63;;;15.83;100.00
12879;BME280;20617;49.476;10.986;2023-05-08T07:34:41;98741.13;;;16.06;100.00
12879;BME280;20617;49.476;10.986;2023-05-08T07:36:46;98738.88;;;16.14;100.00
12879;BME280;20617;49.476;10.986;2023-05-08T07:38:51;98739.63;;;16.32;100.00
12879;BME280;20617;49.476;10.986;2023-05-08T07:40:56;98742.13;;;16.49;100.00
12879;BME280;20617;49.476;10.986;2023-05-08T07:43:03;98750.97;;;16.63;100.00
12879;BME280;20617;49.476;10.986;2023-05-08T07:45:09;98737.56;;;16.67;100.00
12879;BME280;20617;49.476;10.986;2023-05-08T07:47:15;98741.28;;;16.79;100.00
12879;BME280;20617;49.476;10.986;2023-05-08T07:49:23;98736.56;;;16.98;100.00
12879;BME280;20617;49.476;10.986;2023-05-08T07:51:28;98742.88;;;17.10;100.00
12879;BME280;20617;49.476;10.986;2023-05-08T07:53:34;98740.16;;;17.12;100.00
12879;BME280;20617;49.476;10.986;2023-05-08T07:55:41;98745.50;;;17.10;100.00
12879;BME280;20617;49.476;10.986;2023-05-08T07:57:46;98745.88;;;17.04;100.00
12879;BME280;20617;49.476;10.986;2023-05-08T07:59:51;98740.91;;;17.00;100.00
12879;BME280;20617;49.476;10.986;2023-05-08T08:01:56;98737.47;;;17.13;100.00
12879;BME280;20617;49.476;10.986;2023-05-08T08:04:03;98736.78;;;17.10;100.00
12879;BME280;20617;49.476;10.986;2023-05-08T08:06:11;98732.47;;;17.09;100.00
12879;BME280;20617;49.476;10.986;2023-05-08T08:08:16;98737.63;;;17.10;100.00
12879;BME280;20617;49.476;10.986;2023-05-08T08:10:21;98734.97;;;17.10;100.00
12879;BME280;20617;49.476;10.986;2023-05-08T08:12:27;98735.09;;;17.23;100.00
12879;BME280;20617;49.476;10.986;2023-05-08T08:14:33;98737.16;;;17.32;100.00
12879;BME280;20617;49.476;10.986;2023-05-08T08:16:38;98737.22;;;17.45;100.00
12879;BME280;20617;49.476;10.986;2023-05-08T08:18:43;98738.72;;;17.63;100.00
12879;BME280;20617;49.476;10.986;2023-05-08T08:20:48;98727.88;;;17.82;100.00
12879;BME280;20617;49.476;10.986;2023-05-08T08:22:56;98732.91;;;18.00;100.00
12879;BME280;20617;49.476;10.986;2023-05-08T08:25:01;98725.97;;;18.12;100.00
12879;BME280;20617;49.476;10.986;2023-05-08T08:27:06;98726.56;;;18.29;100.00
12879;BME280;20617;49.476;10.986;2023-05-08T08:29:11;98729.53;;;18.38;100.00
12879;BME280;20617;49.476;10.986;2023-05-08T08:31:16;98738.00;;;18.43;100.00
12879;BME280;20617;49.476;10.986;2023-05-08T08:33:22;98728.34;;;18.29;100.00
12879;BME280;20617;49.476;10.986;2023-05-08T08:35:27;98740.09;;;18.38;100.00
12879;BME280;20617;49.476;10.986;2023-05-08T08:37:32;98738.41;;;18.49;100.00
12879;BME280;20617;49.476;10.986;2023-05-08T08:39:40;98731.38;;;18.63;100.00
12879;BME280;20617;49.476;10.986;2023-05-08T08:41:45;98731.97;;;18.81;100.00
12879;BME280;20617;49.476;10.986;2023-05-08T08:43:50;98730.56;;;18.88;100.00
12879;BME280;20617;49.476;10.986;2023-05-08T08:45:55;98734.06;;;19.01;100.00
12879;BME280;20617;49.476;10.986;2023-05-08T08:48:02;98727.84;;;19.15;100.00
12879;BME280;20617;49.476;10.986;2023-05-08T08:50:12;98726.47;;;19.22;100.00
12879;BME280;20617;49.476;10.986;2023-05-08T08:52:23;98734.59;;;19.19;100.00
12879;BME280;20617;49.476;10.986;2023-05-08T08:54:32;98731.13;;;19.18;100.00
12879;BME280;20617;49.476;10.986;2023-05-08T08:56:40;98731.03;;;19.20;100.00
12879;BME280;20617;49.476;10.986;2023-05-08T08:58:52;98735.22;;;19.22;100.00
12879;BME280;20617;49.476;10.986;2023-05-08T09:01:00;98733.53;;;19.21;100.00
12879;BME280;20617;49.476;10.986;2023-05-08T09:03:09;98731.31;;;19.15;100.00
12879;BME280;20617;49.476;10.986;2023-05-08T09:05:14;98728.38;;;19.07;100.00
12879;BME280;20617;49.476;10.986;2023-05-08T09:07:20;98736.41;;;19.06;100.00
12879;BME280;20617;49.476;10.986;2023-05-08T09:09:26;98737.78;;;19.11;100.00
12879;BME280;20617;49.476;10.986;2023-05-08T09:11:31;98738.31;;;19.04;100.00
12879;BME280;20617;49.476;10.986;2023-05-08T09:13:39;98739.16;;;18.91;100.00
12879;BME280;20617;49.476;10.986;2023-05-08T09:15:44;98731.84;;;19.08;100.00
12879;BME280;20617;49.476;10.986;2023-05-08T09:17:50;98740.84;;;19.18;100.00
12879;BME280;20617;49.476;10.986;2023-05-08T09:19:55;98736.38;;;19.31;100.00
12879;BME280;20617;49.476;10.986;2023-05-08T09:22:01;98738.16;;;19.31;100.00
12879;BME280;20617;49.476;10.986;2023-05-08T09:24:10;98733.94;;;19.28;100.00
12879;BME280;20617;49.476;10.986;2023-05-08T09:26:25;98728.56;;;19.30;100.00
12879;BME280;20617;49.476;10.986;2023-05-08T09:28:33;98731.97;;;19.32;100.00
12879;BME280;20617;49.476;10.986;2023-05-08T09:30:50;98730.97;;;19.45;100.00
12879;BME280;20617;49.476;10.986;2023-05-08T09:33:00;98723.69;;;19.49;100.00
12879;BME280;20617;49.476;10.986;2023-05-08T09:35:07;98720.03;;;19.63;100.00
12879;BME280;20617;49.476;10.986;2023-05-08T09:37:13;98728.09;;;19.61;100.00
12879;BME280;20617;49.476;10.986;2023-05-08T09:39:23;98723.63;;;19.75;100.00
12879;BME280;20617;49.476;10.986;2023-05-08T09:41:28;98728.47;;;19.81;100.00
12879;BME280;20617;49.476;10.986;2023-05-08T09:43:33;98724.91;;;19.69;100.00
12879;BME280;20617;49.476;10.986;2023-05-08T09:45:38;98729.97;;;19.72;100.00
12879;BME280;20617;49.476;10.986;2023-05-08T09:47:49;98726.56;;;19.83;100.00
12879;BME280;20617;49.476;10.986;2023-05-08T09:49:58;98731.38;;;19.89;100.00
12879;BME280;20617;49.476;10.986;2023-05-08T09:52:04;98733.16;;;20.01;100.00
12879;BME280;20617;49.476;10.986;2023-05-08T09:54:16;98730.06;;;20.07;100.00
12879;BME280;20617;49.476;10.986;2023-05-08T09:56:31;98727.00;;;20.01;100.00
12879;BME280;20617;49.476;10.986;2023-05-08T09:58:37;98725.44;;;19.98;100.00
12879;BME280;20617;49.476;10.986;2023-05-08T10:00:42;98727.97;;;20.00;100.00
12879;BME280;20617;49.476;10.986;2023-05-08T10:02:55;98737.19;;;19.94;100.00
12879;BME280;20617;49.476;10.986;2023-05-08T10:05:00;98726.69;;;20.05;100.00
12879;BME280;20617;49.476;10.986;2023-05-08T10:07:06;98728.53;;;20.16;100.00
12879;BME280;20617;49.476;10.986;2023-05-08T10:09:12;98730.31;;;20.16;100.00
12879;BME280;20617;49.476;10.986;2023-05-08T10:11:18;98722.91;;;20.21;100.00
12879;BME280;20617;49.476;10.986;2023-05-08T10:13:23;98728.00;;;20.35;100.00
12879;BME280;20617;49.476;10.986;2023-05-08T10:15:29;98730.88;;;20.56;100.00
12879;BME280;20617;49.476;10.986;2023-05-08T10:17:38;98725.00;;;20.64;100.00
12879;BME280;20617;49.476;10.986;2023-05-08T10:19:55;98724.81;;;20.78;100.00
12879;BME280;20617;49.476;10.986;2023-05-08T10:22:03;98728.41;;;20.77;100.00
12879;BME280;20617;49.476;10.986;2023-05-08T10:24:13;98718.31;;;20.82;100.00
12879;BME280;20617;49.476;10.986;2023-05-08T10:26:24;98723.13;;;20.99;100.00
12879;BME280;20617;49.476;10.986;2023-05-08T10:28:32;98727.56;;;20.88;100.00
12879;BME280;20617;49.476;10.986;2023-05-08T10:30:42;98729.47;;;20.63;100.00
12879;BME280;20617;49.476;10.986;2023-05-08T10:32:50;98734.19;;;20.47;100.00
12879;BME280;20617;49.476;10.986;2023-05-08T10:35:02;98719.38;;;20.44;100.00
12879;BME280;20617;49.476;10.986;2023-05-08T10:37:08;98726.09;;;20.37;100.00
12879;BME280;20617;49.476;10.986;2023-05-08T10:39:14;98726.19;;;20.35;100.00
12879;BME280;20617;49.476;10.986;2023-05-08T10:41:20;98725.75;;;20.42;100.00
12879;BME280;20617;49.476;10.986;2023-05-08T10:43:25;98713.00;;;20.60;100.00
12879;BME280;20617;49.476;10.986;2023-05-08T10:45:32;98711.88;;;20.62;100.00
12879;BME280;20617;49.476;10.986;2023-05-08T10:47:58;98712.53;;;20.77;100.00
12879;BME280;20617;49.476;10.986;2023-05-08T10:50:20;98722.19;;;21.00;100.00
12879;BME280;20617;49.476;10.986;2023-05-08T10:52:32;98713.03;;;21.16;100.00
12879;BME280;20617;49.476;10.986;2023-05-08T10:54:55;98714.03;;;21.15;100.00
12879;BME280;20617;49.476;10.986;2023-05-08T10:57:08;98716.66;;;21.03;100.00
12879;BME280;20617;49.476;10.986;2023-05-08T10:59:17;98708.72;;;21.15;100.00
12879;BME280;20617;49.476;10.986;2023-05-08T11:01:24;98701.72;;;21.14;100.00